Estación de Tranque Lautaro
Ultimos registro cada 15 minutos 32
| N° | Estación | Fecha / Hora | Temperatura | Humedad | Lluvia | Velocidad | Dirección | Radiación | Presion |
| 32 | Tranque Lautaro | 06-09-2026 08:45 | 18,5 | 17,6 | 0 | 1,7 | 121 | 15,6 | 886,4 |
| 31 | Tranque Lautaro | 06-09-2026 08:30 | 18,5 | 17,5 | 0 | 2 | 122 | 13,1 | 886,4 |
| 30 | Tranque Lautaro | 06-09-2026 08:15 | 18,5 | 17,6 | 0 | 1,7 | 121 | 10,6 | 886,2 |
| 29 | Tranque Lautaro | 06-09-2026 08:00 | 18,5 | 17,6 | 0 | 2 | 124 | 6,9 | 886,1 |
| 28 | Tranque Lautaro | 06-09-2026 07:45 | 18,7 | 17,5 | 0 | 1,7 | 126 | 1,9 | 886 |
| 27 | Tranque Lautaro | 06-09-2026 07:30 | 18,8 | 17,6 | 0 | 1,7 | 124 | 0,6 | 885,9 |
| 26 | Tranque Lautaro | 06-09-2026 07:15 | 18,3 | 18,4 | 0 | 0,3 | 153 | 0,6 | 885,8 |
| 25 | Tranque Lautaro | 06-09-2026 07:00 | 18,6 | 18,6 | 0 | 1 | 132 | 0,6 | 885,8 |
| 24 | Tranque Lautaro | 06-09-2026 06:45 | 16,6 | 23,7 | 0 | 0 | 174 | 0,6 | 885,4 |
| 23 | Tranque Lautaro | 06-09-2026 06:30 | 16 | 27,2 | 0 | 0 | 183 | 0,6 | 885,2 |
| 22 | Tranque Lautaro | 06-09-2026 06:15 | 15,4 | 31,7 | 0 | 0 | 173 | 0,6 | 885,1 |
| 21 | Tranque Lautaro | 06-09-2026 06:00 | 16,4 | 28,7 | 0 | 0,3 | 145 | 0,6 | 884,6 |
| 20 | Tranque Lautaro | 06-09-2026 05:45 | 15,9 | 26,5 | 0 | 0 | 173 | 0,6 | 884,8 |
| 19 | Tranque Lautaro | 06-09-2026 05:30 | 14,1 | 40,5 | 0 | 0 | 174 | 0,6 | 884,8 |
| 18 | Tranque Lautaro | 06-09-2026 05:15 | 14,7 | 42,9 | 0 | 0,3 | 164 | 0,6 | 884,4 |
| 17 | Tranque Lautaro | 06-09-2026 05:00 | 11,5 | 51,9 | 0 | 0 | 121 | 0,6 | 884,6 |
| 16 | Tranque Lautaro | 06-09-2026 04:45 | 11,3 | 52,4 | 0 | 0 | 121 | 0,6 | 884,4 |
| 15 | Tranque Lautaro | 06-09-2026 04:30 | 11,3 | 53 | 0 | 0 | 121 | 0,6 | 884,4 |
| 14 | Tranque Lautaro | 06-09-2026 04:15 | 11,7 | 50,9 | 0 | 0 | 121 | 0,6 | 885,1 |
| 13 | Tranque Lautaro | 06-09-2026 04:00 | 12 | 50,2 | 0 | 0 | 160 | 0,6 | 885,4 |
| 12 | Tranque Lautaro | 06-09-2026 03:45 | 12,4 | 48,6 | 0 | 0 | 143 | 0,6 | 885,4 |
| 11 | Tranque Lautaro | 06-09-2026 03:30 | 13 | 52 | 0 | 0 | 143 | 0,6 | 885,6 |
| 10 | Tranque Lautaro | 06-09-2026 03:15 | 12,9 | 51,8 | 0 | 0 | 143 | 0,6 | 885,8 |
| 9 | Tranque Lautaro | 06-09-2026 03:00 | 14,8 | 48,2 | 0 | 0 | 142 | 0,6 | 885,8 |
| 8 | Tranque Lautaro | 06-09-2026 02:45 | 14,2 | 48,2 | 0 | 0 | 126 | 0,6 | 885,9 |
| 7 | Tranque Lautaro | 06-09-2026 02:30 | 13,5 | 51,8 | 0 | 0 | 128 | 0,6 | 886 |
| 6 | Tranque Lautaro | 06-09-2026 02:15 | 15 | 52,2 | 0 | 0 | 166 | 0,6 | 886 |
| 5 | Tranque Lautaro | 06-09-2026 02:00 | 14,4 | 53,9 | 0 | 0 | 192 | 0,6 | 886 |
| 4 | Tranque Lautaro | 06-09-2026 01:45 | 15,1 | 47,2 | 0 | 0 | 191 | 0,6 | 886,1 |
| 3 | Tranque Lautaro | 06-09-2026 01:30 | 15,5 | 54,7 | 0 | 0 | 185 | 0,6 | 886,2 |
| 2 | Tranque Lautaro | 06-09-2026 01:15 | 15,7 | 50 | 0 | 0 | 188 | 0,6 | 886,3 |
| 1 | Tranque Lautaro | 06-09-2026 01:00 | 16,5 | 43,2 | 0 | 0 | 336 | 0,6 | 886,4 |